createdAt,value
2019-03-03T00:00:23.045Z,2.35
2019-03-03T00:02:51.127Z,1.82
2019-03-03T00:05:19.581Z,2.15
2019-03-03T00:07:47.888Z,2.20
2019-03-03T00:10:16.456Z,2.17
2019-03-03T00:12:44.874Z,2.42
2019-03-03T00:15:13.583Z,2.50
2019-03-03T00:17:42.260Z,2.40
2019-03-03T00:20:13.072Z,1.92
2019-03-03T00:22:41.538Z,2.17
2019-03-03T00:25:16.505Z,2.75
2019-03-03T00:27:44.900Z,2.72
2019-03-03T00:30:17.300Z,2.40
2019-03-03T00:32:45.702Z,2.00
2019-03-03T00:35:14.476Z,2.00
2019-03-03T00:37:44.507Z,2.52
2019-03-03T00:40:21.231Z,2.20
2019-03-03T00:42:51.774Z,2.95
2019-03-03T00:45:21.822Z,2.47
2019-03-03T00:47:58.456Z,2.27
2019-03-03T00:50:34.108Z,2.27
2019-03-03T00:53:21.001Z,2.20
2019-03-03T00:56:07.365Z,2.33
2019-03-03T00:58:46.488Z,2.22
2019-03-03T01:01:25.667Z,2.33
2019-03-03T01:03:55.412Z,2.17
2019-03-03T01:06:25.536Z,2.47
2019-03-03T01:08:55.313Z,2.70
2019-03-03T01:11:31.652Z,2.00
2019-03-03T01:14:13.395Z,2.22
2019-03-03T01:16:49.417Z,2.17
2019-03-03T01:19:37.472Z,2.27
2019-03-03T01:22:10.213Z,1.55
2019-03-03T01:24:49.324Z,2.17
2019-03-03T01:27:17.731Z,2.08
2019-03-03T01:29:45.810Z,2.15
2019-03-03T01:32:14.595Z,1.67
2019-03-03T01:34:42.993Z,2.30
2019-03-03T01:37:11.139Z,1.82
2019-03-03T01:39:39.914Z,1.98
2019-03-03T01:42:08.333Z,2.35
2019-03-03T01:44:38.373Z,1.67
2019-03-03T01:47:06.781Z,1.87
2019-03-03T01:49:35.348Z,2.02
2019-03-03T01:52:03.824Z,2.20
2019-03-03T01:54:35.412Z,2.30
2019-03-03T01:57:04.164Z,1.70
2019-03-03T01:59:32.566Z,2.10
2019-03-03T02:02:00.669Z,1.65
2019-03-03T02:04:29.490Z,1.87
2019-03-03T02:06:57.972Z,1.70
2019-03-03T02:09:27.173Z,1.70
2019-03-03T02:11:55.584Z,1.60
2019-03-03T02:14:24.044Z,1.67
2019-03-03T02:16:52.469Z,1.57
2019-03-03T02:19:20.889Z,1.50
2019-03-03T02:21:49.298Z,1.57
2019-03-03T02:24:18.004Z,1.80
2019-03-03T02:26:46.082Z,1.40
2019-03-03T02:29:14.148Z,1.45
2019-03-03T02:31:43.022Z,1.50
2019-03-03T02:34:11.417Z,1.82
2019-03-03T02:36:40.193Z,1.50
2019-03-03T02:39:13.960Z,1.40
2019-03-03T02:41:42.648Z,1.62
2019-03-03T02:44:11.420Z,1.80
2019-03-03T02:46:39.829Z,1.32
2019-03-03T02:49:09.778Z,1.42
2019-03-03T02:51:39.470Z,1.47
2019-03-03T02:54:07.548Z,1.37
2019-03-03T02:56:36.189Z,1.30
2019-03-03T02:59:05.270Z,1.27
2019-03-03T03:01:35.318Z,1.37
2019-03-03T03:04:03.383Z,1.37
2019-03-03T03:06:39.127Z,1.30
2019-03-03T03:09:10.354Z,1.30
2019-03-03T03:11:40.065Z,1.42
2019-03-03T03:14:19.523Z,1.22
2019-03-03T03:16:52.477Z,1.20
2019-03-03T03:19:22.510Z,1.00
2019-03-03T03:22:10.521Z,1.15
2019-03-03T03:24:40.565Z,1.00
2019-03-03T03:27:26.789Z,1.50
2019-03-03T03:30:06.054Z,1.25
2019-03-03T03:32:52.125Z,1.47
2019-03-03T03:35:28.359Z,1.50
2019-03-03T03:38:01.257Z,1.40
2019-03-03T03:40:40.097Z,1.42
2019-03-03T03:43:16.038Z,1.17
2019-03-03T03:45:49.241Z,1.37
2019-03-03T03:48:25.019Z,0.75
2019-03-03T03:50:55.138Z,1.60
2019-03-03T03:53:41.691Z,1.65
2019-03-03T03:56:21.021Z,1.20
2019-03-03T03:58:51.077Z,1.30
2019-03-03T04:01:36.800Z,1.10
2019-03-03T04:04:06.857Z,1.10
2019-03-03T04:06:43.104Z,1.10
2019-03-03T04:09:15.461Z,1.00
2019-03-03T04:12:01.569Z,1.12
2019-03-03T04:14:40.613Z,1.25
2019-03-03T04:17:13.397Z,1.32
2019-03-03T04:19:46.192Z,1.30
2019-03-03T04:22:34.332Z,1.07
2019-03-03T04:25:04.380Z,1.25
2019-03-03T04:27:34.457Z,1.20
2019-03-03T04:30:04.513Z,1.17
2019-03-03T04:32:52.216Z,1.45
2019-03-03T04:35:22.308Z,1.12
2019-03-03T04:37:57.993Z,1.20
2019-03-03T04:40:43.271Z,1.50
2019-03-03T04:43:16.262Z,1.30
2019-03-03T04:45:46.297Z,1.47
2019-03-03T04:48:34.189Z,1.40
2019-03-03T04:51:13.116Z,1.42
2019-03-03T04:53:55.124Z,1.50
2019-03-03T04:56:25.157Z,1.25
2019-03-03T04:58:58.188Z,1.30
2019-03-03T05:01:34.188Z,1.60
2019-03-03T05:04:12.953Z,1.52
2019-03-03T05:06:51.925Z,1.30
2019-03-03T05:09:34.309Z,1.42
2019-03-03T05:12:22.356Z,1.35
2019-03-03T05:14:52.413Z,1.30
2019-03-03T05:17:31.431Z,1.37
2019-03-03T05:20:01.149Z,1.37
2019-03-03T05:22:29.544Z,1.20
2019-03-03T05:24:57.973Z,1.47
2019-03-03T05:27:26.368Z,1.02
2019-03-03T05:29:54.773Z,1.00
2019-03-03T05:32:22.844Z,1.20
2019-03-03T05:34:51.245Z,0.90
2019-03-03T05:37:19.320Z,0.90
2019-03-03T05:40:07.533Z,1.10
2019-03-03T05:42:35.944Z,0.75
2019-03-03T05:45:06.217Z,1.00
2019-03-03T05:47:34.604Z,1.15
2019-03-03T05:50:03.284Z,1.45
2019-03-03T05:52:31.681Z,1.20
2019-03-03T05:55:00.313Z,1.30
2019-03-03T05:57:28.849Z,1.07
2019-03-03T05:59:57.252Z,1.05
2019-03-03T06:02:25.643Z,1.10
2019-03-03T06:04:53.900Z,0.82
2019-03-03T06:07:21.967Z,1.10
2019-03-03T06:09:50.049Z,0.90
2019-03-03T06:12:18.448Z,1.10
2019-03-03T06:14:46.860Z,0.93
2019-03-03T06:17:15.252Z,1.22
2019-03-03T06:19:43.664Z,1.00
2019-03-03T06:22:12.063Z,1.10
2019-03-03T06:24:40.480Z,1.02
2019-03-03T06:27:08.945Z,1.45
2019-03-03T06:29:37.349Z,1.12
2019-03-03T06:32:05.751Z,1.42
2019-03-03T06:34:34.148Z,1.12
2019-03-03T06:37:02.247Z,0.88
2019-03-03T06:39:30.643Z,1.07
2019-03-03T06:41:59.048Z,1.40
2019-03-03T06:44:27.445Z,1.30
2019-03-03T06:46:55.844Z,1.20
2019-03-03T06:49:24.243Z,1.00
2019-03-03T06:51:52.331Z,1.00
2019-03-03T06:54:20.727Z,0.90
2019-03-03T06:56:49.137Z,1.45
2019-03-03T06:59:17.557Z,0.80
2019-03-03T07:01:45.980Z,0.93
2019-03-03T07:04:14.388Z,1.22
2019-03-03T07:06:42.466Z,0.78
2019-03-03T07:09:10.929Z,1.27
2019-03-03T07:11:39.351Z,0.82
2019-03-03T07:14:07.782Z,0.80
2019-03-03T07:16:36.202Z,1.05
2019-03-03T07:19:04.600Z,0.90
2019-03-03T07:21:32.684Z,1.02
2019-03-03T07:24:01.088Z,0.80
2019-03-03T07:26:29.492Z,0.78
2019-03-03T07:28:57.896Z,1.12
2019-03-03T07:31:26.308Z,0.80
2019-03-03T07:33:54.957Z,0.60
2019-03-03T07:36:23.044Z,0.90
2019-03-03T07:38:51.440Z,0.57
2019-03-03T07:41:19.857Z,0.85
2019-03-03T07:43:48.280Z,0.80
2019-03-03T07:46:16.684Z,0.57
2019-03-03T07:48:45.083Z,0.72
2019-03-03T07:51:13.508Z,0.75
2019-03-03T07:53:41.914Z,0.50
2019-03-03T07:56:10.324Z,0.33
2019-03-03T07:58:38.725Z,0.62
2019-03-03T08:01:07.147Z,0.65
2019-03-03T08:03:35.553Z,0.57
2019-03-03T08:06:04.100Z,0.65
2019-03-03T08:08:32.501Z,0.60
2019-03-03T08:11:00.572Z,0.70
2019-03-03T08:13:28.986Z,0.65
2019-03-03T08:15:57.393Z,0.70
2019-03-03T08:18:25.796Z,0.55
2019-03-03T08:20:54.211Z,0.70
2019-03-03T08:23:22.604Z,0.70
2019-03-03T08:25:50.674Z,0.40
2019-03-03T08:28:19.166Z,0.60
2019-03-03T08:30:47.574Z,0.72
2019-03-03T08:33:15.992Z,0.53
2019-03-03T08:35:44.052Z,0.40
2019-03-03T08:38:12.533Z,0.72
2019-03-03T08:40:40.937Z,0.60
2019-03-03T08:43:11.004Z,0.37
2019-03-03T08:45:41.034Z,0.60
2019-03-03T08:48:27.330Z,0.30
2019-03-03T08:51:00.474Z,0.53
2019-03-03T08:53:30.536Z,0.40
2019-03-03T08:56:09.633Z,0.40
2019-03-03T08:58:39.685Z,0.50
2019-03-03T09:01:13.216Z,0.40
2019-03-03T09:03:58.296Z,0.40
2019-03-03T09:06:28.324Z,0.40
2019-03-03T09:08:58.056Z,0.20
2019-03-03T09:11:44.096Z,0.50
2019-03-03T09:14:20.174Z,0.37
2019-03-03T09:16:55.944Z,0.50
2019-03-03T09:19:28.687Z,0.50
2019-03-03T09:21:58.720Z,0.50
2019-03-03T09:24:43.977Z,0.40
2019-03-03T09:27:26.284Z,0.40
2019-03-03T09:29:56.338Z,0.47
2019-03-03T09:32:35.442Z,0.40
2019-03-03T09:35:06.612Z,0.30
2019-03-03T09:37:36.674Z,0.30
2019-03-03T09:40:18.796Z,0.30
2019-03-03T09:42:57.719Z,0.68
2019-03-03T09:45:30.412Z,0.30
2019-03-03T09:48:00.464Z,0.75
2019-03-03T09:50:30.518Z,0.30
2019-03-03T09:53:16.675Z,0.30
2019-03-03T09:55:49.449Z,0.40
2019-03-03T09:58:19.772Z,0.30
2019-03-03T10:00:58.834Z,0.40
2019-03-03T10:03:28.880Z,0.35
2019-03-03T10:05:58.927Z,0.33
2019-03-03T10:08:28.988Z,0.25
2019-03-03T10:11:17.047Z,0.40
2019-03-03T10:14:03.167Z,0.25
2019-03-03T10:16:33.217Z,0.50
2019-03-03T10:19:07.303Z,0.40
2019-03-03T10:21:37.593Z,0.40
2019-03-03T10:24:13.784Z,0.30
2019-03-03T10:26:43.823Z,0.20
2019-03-03T10:29:16.539Z,0.50
2019-03-03T10:32:02.453Z,0.45
2019-03-03T10:34:48.996Z,0.30
2019-03-03T10:37:21.375Z,0.30
2019-03-03T10:40:06.123Z,0.60
2019-03-03T10:42:38.821Z,0.20
2019-03-03T10:45:11.021Z,0.20
2019-03-03T10:47:57.058Z,0.30
2019-03-03T10:50:29.833Z,0.28
2019-03-03T10:53:05.721Z,0.20
2019-03-03T10:55:50.535Z,0.30
2019-03-03T10:58:36.492Z,0.23
2019-03-03T11:01:07.125Z,0.20
2019-03-03T11:03:45.977Z,0.20
2019-03-03T11:06:24.928Z,0.20
2019-03-03T11:09:21.220Z,0.10
2019-03-03T11:11:57.792Z,0.10
2019-03-03T11:14:44.366Z,0.23
2019-03-03T11:17:16.835Z,0.20
2019-03-03T11:20:05.120Z,0.10
2019-03-03T11:22:37.820Z,0.10
2019-03-03T11:25:10.616Z,0.20
2019-03-03T11:27:43.600Z,0.13
2019-03-03T11:30:27.852Z,0.20
2019-03-03T11:33:12.960Z,0.25
2019-03-03T11:35:43.201Z,0.20
2019-03-03T11:38:16.368Z,0.10
2019-03-03T11:40:52.499Z,0.40
2019-03-03T11:43:34.868Z,0.10
2019-03-03T11:46:30.241Z,0.25
2019-03-03T11:49:00.301Z,0.70
2019-03-03T11:51:30.360Z,0.30
2019-03-03T11:54:02.911Z,0.23
2019-03-03T11:56:32.951Z,0.20
2019-03-03T11:59:11.516Z,0.30
2019-03-03T12:01:44.290Z,0.30
2019-03-03T12:04:17.053Z,0.25
2019-03-03T12:06:59.089Z,0.23
2019-03-03T12:09:47.136Z,0.20
2019-03-03T12:12:17.179Z,0.20
2019-03-03T12:14:56.301Z,0.40
2019-03-03T12:17:43.649Z,0.28
2019-03-03T12:20:19.641Z,0.23
2019-03-03T12:23:07.718Z,0.28
2019-03-03T12:25:54.059Z,0.40
2019-03-03T12:28:24.118Z,0.10
2019-03-03T12:30:56.828Z,0.20
2019-03-03T12:33:26.876Z,0.20
2019-03-03T12:36:13.564Z,0.20
2019-03-03T12:38:46.568Z,0.30
2019-03-03T12:41:22.297Z,0.20
2019-03-03T12:43:58.097Z,0.30
2019-03-03T12:46:30.556Z,0.13
2019-03-03T12:49:09.612Z,0.20
2019-03-03T12:51:48.213Z,0.30
2019-03-03T12:54:33.244Z,0.30
2019-03-03T12:57:09.180Z,0.17
2019-03-03T12:59:39.220Z,0.13
2019-03-03T13:02:25.789Z,0.17
2019-03-03T13:05:07.844Z,0.20
2019-03-03T13:07:43.596Z,0.30
2019-03-03T13:10:30.141Z,0.30
2019-03-03T13:13:00.189Z,0.15
2019-03-03T13:15:36.359Z,0.23
2019-03-03T13:18:22.921Z,0.23
2019-03-03T13:21:05.168Z,0.20
2019-03-03T13:23:38.222Z,0.20
2019-03-03T13:26:10.607Z,0.20
2019-03-03T13:28:55.876Z,0.10
2019-03-03T13:31:42.659Z,0.10
2019-03-03T13:34:21.890Z,0.20
2019-03-03T13:36:51.933Z,0.30
2019-03-03T13:39:38.232Z,0.30
2019-03-03T13:42:14.336Z,0.30
2019-03-03T13:44:42.741Z,0.30
2019-03-03T13:47:12.437Z,0.25
2019-03-03T13:49:40.847Z,0.25
2019-03-03T13:52:09.335Z,0.20
2019-03-03T13:54:37.874Z,0.33
2019-03-03T13:57:06.288Z,0.20
2019-03-03T13:59:34.792Z,0.30
2019-03-03T14:02:03.252Z,0.10
2019-03-03T14:04:31.340Z,0.10
2019-03-03T14:06:59.740Z,0.30
2019-03-03T14:09:28.172Z,0.30
2019-03-03T14:11:56.576Z,0.20
2019-03-03T14:14:24.776Z,0.25
2019-03-03T14:16:53.178Z,0.35
2019-03-03T14:19:21.252Z,0.35
2019-03-03T14:21:49.686Z,0.30
2019-03-03T14:24:18.085Z,0.35
2019-03-03T14:26:46.509Z,0.15
2019-03-03T14:29:16.941Z,0.20
2019-03-03T14:31:45.448Z,0.28
2019-03-03T14:34:14.022Z,0.30
2019-03-03T14:36:42.102Z,0.10
2019-03-03T14:39:10.967Z,0.30
2019-03-03T14:41:58.709Z,0.20
2019-03-03T14:44:27.192Z,0.30
2019-03-03T14:46:55.264Z,0.25
2019-03-03T14:49:23.685Z,0.10
2019-03-03T14:51:52.090Z,0.30
2019-03-03T14:54:20.562Z,0.20
2019-03-03T14:56:48.999Z,0.20
2019-03-03T14:59:17.071Z,0.23
2019-03-03T15:01:45.484Z,0.23
2019-03-03T15:04:13.899Z,0.30
2019-03-03T15:06:42.314Z,0.20
2019-03-03T15:09:23.057Z,0.25
2019-03-03T15:11:51.585Z,0.17
2019-03-03T15:14:20.137Z,0.20
2019-03-03T15:16:48.569Z,0.23
2019-03-03T15:19:16.973Z,0.10
2019-03-03T15:21:45.390Z,0.23
2019-03-03T15:24:13.789Z,0.10
2019-03-03T15:26:42.194Z,0.20
2019-03-03T15:29:10.601Z,0.20
2019-03-03T15:31:38.694Z,0.10
2019-03-03T15:34:07.089Z,0.20
2019-03-03T15:36:35.494Z,0.17
2019-03-03T15:39:06.300Z,0.10
2019-03-03T15:41:34.728Z,0.42
2019-03-03T15:44:04.265Z,0.20
2019-03-03T15:46:32.672Z,0.20
2019-03-03T15:49:01.100Z,0.13
2019-03-03T15:51:29.529Z,0.20
2019-03-03T15:53:57.939Z,0.20
2019-03-03T15:56:26.361Z,0.20
2019-03-03T15:58:55.805Z,0.10
2019-03-03T16:01:24.199Z,0.20
2019-03-03T16:03:52.613Z,0.30
2019-03-03T16:06:21.036Z,0.20
2019-03-03T16:08:49.430Z,0.15
2019-03-03T16:11:17.848Z,0.20
2019-03-03T16:13:45.920Z,0.20
2019-03-03T16:16:14.269Z,0.20
2019-03-03T16:18:42.684Z,0.20
2019-03-03T16:21:11.092Z,0.10
2019-03-03T16:23:39.502Z,0.20
2019-03-03T16:26:08.010Z,0.10
2019-03-03T16:28:36.415Z,0.10
2019-03-03T16:31:04.820Z,0.10
2019-03-03T16:33:33.246Z,0.15
2019-03-03T16:36:01.325Z,0.13
2019-03-03T16:38:29.750Z,0.10
2019-03-03T16:40:58.140Z,3.50
2019-03-03T16:43:26.569Z,8.98
2019-03-03T16:45:54.969Z,3.40
2019-03-03T16:48:23.381Z,0.90
2019-03-03T16:50:52.642Z,0.33
2019-03-03T16:53:20.721Z,0.60
2019-03-03T16:55:48.794Z,0.23
2019-03-03T16:58:17.204Z,0.20
2019-03-03T17:00:45.614Z,0.68
2019-03-03T17:03:14.506Z,0.70
2019-03-03T17:05:42.578Z,0.90
2019-03-03T17:08:10.992Z,0.40
2019-03-03T17:10:39.393Z,0.42
2019-03-03T17:13:07.801Z,0.65
2019-03-03T17:15:36.208Z,0.72
2019-03-03T17:18:04.619Z,0.53
2019-03-03T17:20:33.020Z,0.53
2019-03-03T17:23:01.100Z,0.50
2019-03-03T17:25:29.677Z,1.20
2019-03-03T17:27:58.081Z,1.98
2019-03-03T17:30:27.866Z,1.40
2019-03-03T17:32:57.101Z,0.90
2019-03-03T17:35:25.499Z,0.60
2019-03-03T17:37:53.896Z,0.80
2019-03-03T17:40:23.512Z,1.00
2019-03-03T17:42:52.210Z,3.45
2019-03-03T17:45:22.166Z,4.33
2019-03-03T17:47:51.408Z,2.40
2019-03-03T17:50:22.637Z,1.77
2019-03-03T17:52:51.205Z,0.65
2019-03-03T17:55:19.620Z,0.72
2019-03-03T17:57:48.027Z,1.05
2019-03-03T18:00:33.187Z,0.93
2019-03-03T18:03:01.576Z,0.62
2019-03-03T18:05:29.998Z,1.50
2019-03-03T18:07:58.530Z,0.68
2019-03-03T18:10:27.072Z,0.65
2019-03-03T18:12:55.477Z,0.57
2019-03-03T18:15:23.882Z,0.60
2019-03-03T18:17:52.284Z,0.62
2019-03-03T18:20:21.122Z,0.40
2019-03-03T18:22:50.019Z,0.30
2019-03-03T18:25:19.921Z,0.37
2019-03-03T18:27:48.359Z,0.50
2019-03-03T18:30:26.320Z,0.40
2019-03-03T18:32:54.727Z,0.30
2019-03-03T18:35:23.136Z,0.30
2019-03-03T18:37:51.374Z,0.35
2019-03-03T18:40:21.429Z,0.40
2019-03-03T18:42:50.271Z,0.40
2019-03-03T18:45:19.950Z,0.60
2019-03-03T18:47:48.703Z,0.50
2019-03-03T18:50:21.973Z,0.60
2019-03-03T18:52:50.372Z,0.98
2019-03-03T18:55:18.785Z,0.70
2019-03-03T18:57:46.861Z,0.98
2019-03-03T19:00:16.150Z,1.10
2019-03-03T19:02:44.936Z,1.32
2019-03-03T19:05:13.012Z,1.47
2019-03-03T19:07:41.569Z,1.85
2019-03-03T19:10:12.823Z,1.80
2019-03-03T19:12:41.225Z,2.35
2019-03-03T19:15:12.470Z,1.42
2019-03-03T19:17:40.873Z,3.47
2019-03-03T19:20:11.624Z,2.22
2019-03-03T19:22:40.309Z,14.20
2019-03-03T19:25:11.280Z,14.03
2019-03-03T19:27:40.925Z,18.55
2019-03-03T19:30:18.234Z,20.90
2019-03-03T19:32:48.967Z,9.48
2019-03-03T19:35:17.705Z,6.75
2019-03-03T19:37:46.104Z,4.50
2019-03-03T19:40:14.688Z,2.90
2019-03-03T19:42:43.021Z,1.70
2019-03-03T19:45:23.052Z,1.70
2019-03-03T19:47:51.721Z,1.10
2019-03-03T19:50:20.129Z,1.50
2019-03-03T19:52:48.534Z,0.90
2019-03-03T19:55:17.989Z,0.82
2019-03-03T19:57:46.055Z,1.22
2019-03-03T20:00:23.705Z,1.25
2019-03-03T20:02:52.104Z,1.35
2019-03-03T20:05:20.176Z,0.80
2019-03-03T20:07:48.265Z,0.60
2019-03-03T20:10:17.791Z,0.70
2019-03-03T20:12:46.206Z,0.62
2019-03-03T20:15:14.660Z,1.45
2019-03-03T20:17:45.725Z,1.10
2019-03-03T20:20:18.041Z,1.00
2019-03-03T20:22:46.811Z,0.70
2019-03-03T20:25:15.275Z,0.70
2019-03-03T20:27:43.928Z,0.90
2019-03-03T20:30:16.131Z,0.78
2019-03-03T20:32:44.217Z,0.50
2019-03-03T20:35:12.688Z,0.60
2019-03-03T20:37:41.092Z,0.57
2019-03-03T20:40:26.972Z,0.50
2019-03-03T20:42:55.623Z,0.50
2019-03-03T20:45:30.381Z,0.50
2019-03-03T20:47:58.634Z,0.70
2019-03-03T20:50:27.115Z,0.72
2019-03-03T20:52:55.579Z,0.70
2019-03-03T20:55:26.229Z,1.15
2019-03-03T20:57:54.765Z,0.90
2019-03-03T21:00:27.948Z,0.90
2019-03-03T21:02:56.793Z,0.78
2019-03-03T21:05:25.271Z,0.50
2019-03-03T21:07:53.749Z,0.65
2019-03-03T21:10:25.264Z,0.53
2019-03-03T21:12:53.504Z,0.70
2019-03-03T21:15:21.652Z,0.60
2019-03-03T21:17:49.741Z,0.40
2019-03-03T21:20:18.684Z,0.55
2019-03-03T21:22:47.548Z,0.57
2019-03-03T21:25:17.386Z,0.50
2019-03-03T21:27:45.959Z,0.60
2019-03-03T21:30:22.396Z,0.60
2019-03-03T21:32:51.239Z,0.40
2019-03-03T21:35:19.755Z,0.60
2019-03-03T21:37:48.544Z,0.68
2019-03-03T21:40:24.514Z,0.40
2019-03-03T21:42:52.596Z,0.70
2019-03-03T21:45:27.995Z,0.60
2019-03-03T21:47:57.131Z,0.70
2019-03-03T21:50:29.640Z,0.60
2019-03-03T21:52:57.729Z,0.70
2019-03-03T21:55:26.363Z,0.47
2019-03-03T21:57:54.778Z,0.82
2019-03-03T22:00:31.509Z,0.50
2019-03-03T22:03:00.266Z,0.40
2019-03-03T22:05:28.913Z,0.60
2019-03-03T22:07:57.330Z,0.65
2019-03-03T22:10:33.126Z,0.50
2019-03-03T22:13:04.136Z,0.70
2019-03-03T22:15:32.605Z,0.50
2019-03-03T22:18:01.020Z,0.50
2019-03-03T22:20:29.404Z,0.50
2019-03-03T22:22:57.490Z,0.45
2019-03-03T22:25:25.888Z,0.40
2019-03-03T22:27:54.312Z,0.53
2019-03-03T22:30:22.395Z,0.53
2019-03-03T22:32:50.805Z,0.60
2019-03-03T22:35:19.193Z,0.40
2019-03-03T22:37:47.596Z,0.40
2019-03-03T22:40:17.841Z,0.40
2019-03-03T22:42:46.244Z,0.40
2019-03-03T22:45:18.647Z,0.40
2019-03-03T22:47:46.733Z,0.30
2019-03-03T22:50:19.548Z,0.50
2019-03-03T22:52:47.979Z,0.25
2019-03-03T22:55:20.812Z,0.30
2019-03-03T22:57:49.215Z,0.40
2019-03-03T23:00:27.940Z,0.37
2019-03-03T23:02:56.348Z,0.30
2019-03-03T23:05:42.988Z,0.30
2019-03-03T23:08:14.472Z,0.40
2019-03-03T23:10:48.730Z,0.40
2019-03-03T23:13:25.772Z,0.30
2019-03-03T23:16:18.113Z,0.40
2019-03-03T23:18:48.701Z,0.30
2019-03-03T23:21:38.280Z,0.40
2019-03-03T23:24:35.338Z,0.40
2019-03-03T23:27:03.745Z,0.28
2019-03-03T23:29:32.421Z,0.70
2019-03-03T23:32:00.813Z,0.20
2019-03-03T23:34:29.224Z,0.40
2019-03-03T23:36:57.619Z,0.50
2019-03-03T23:39:26.028Z,0.40
2019-03-03T23:41:54.096Z,0.40
2019-03-03T23:44:22.500Z,0.57
2019-03-03T23:46:50.904Z,0.40
2019-03-03T23:49:19.300Z,0.50
2019-03-03T23:51:47.700Z,0.40
2019-03-03T23:54:16.107Z,0.30
2019-03-03T23:56:44.576Z,0.40
2019-03-03T23:59:12.660Z,0.30
